Ohshima Kazumaru — JD2908 — position and weather

sailwx.info

Track history (hours):
 
Tides and Currents Weather Stations Pressure Air Temp Water Temp Dewpoint Dewpoint Depression Visibility Wind Speed Wind Dir Waves Ship Positions

Ohshima Kazumaru

Last reported at 2016-Apr-27 13:17 UTC. Time now 2016-Apr-29 10:03 UTC.
Position N 35°02' E 139°31'.

Length 69 m; draft 4 m.

Type: Cargo ship. MMSI: 431000925.

Date/timePositionNaut miles runAvg speedWind from/ knotsBaromVisibWave heightAir tempDewpointWater temp
2016-Apr-27 13:17N 35°02' E 139°31'1012.0
2016-Apr-27 12:25N 35°07' E 139°42'1011.0
2016-Apr-27 11:33N 35°16' E 139°45'1010.3
2016-Apr-27 10:33N 35°26' E 139°45'5 5.0
2016-Apr-27 09:31N 35°32' E 139°47'0 0.0
2016-Apr-27 07:19N 35°32' E 139°47'0 0.0
2016-Apr-27 05:16N 35°32' E 139°47'0 0.0
2016-Apr-27 04:13N 35°32' E 139°47'0 0.0
2016-Apr-27 03:31N 35°32' E 139°47'0 0.0
2016-Apr-27 02:31N 35°32' E 139°47'0 0.0
2016-Apr-27 01:31N 35°32' E 139°47'0 0.0
2016-Apr-27 00:25N 35°32' E 139°47'0 0.0
2016-Apr-26 23:33N 35°32' E 139°47'0 0.0
2016-Apr-26 22:32N 35°32' E 139°47'2 2.3
2016-Apr-26 21:31N 35°31' E 139°50'0 0.1
2016-Apr-26 20:31N 35°31' E 139°50'5 5.6
2016-Apr-26 19:34N 35°26' E 139°47'1110.8
2016-Apr-26 18:33N 35°15' E 139°47'1110.8
2016-Apr-26 17:33N 35°05' E 139°42'1211.8
2016-Apr-26 16:32N 34°57' E 139°31'  
2016-Apr-24 12:30N 34°07' E 134°46'244 9.8
2016-Apr-23 11:33N 35°03' E 139°34'1211.3
2016-Apr-23 10:31N 35°11' E 139°45'1111.2
2016-Apr-23 09:33N 35°21' E 139°42'1111.1
2016-Apr-23 08:33N 35°31' E 139°49'8 8.4
2016-Apr-23 07:33N 35°38' E 139°46'0 0.0
2016-Apr-23 06:33N 35°38' E 139°46'0 0.0
2016-Apr-23 05:33N 35°38' E 139°46'0 0.0
2016-Apr-23 04:33N 35°38' E 139°46'0 0.0
2016-Apr-23 03:33N 35°38' E 139°46'0 0.0
2016-Apr-23 02:33N 35°38' E 139°46'0 0.0
2016-Apr-23 01:33N 35°38' E 139°46'0 0.0
2016-Apr-23 00:33N 35°38' E 139°46'0 0.0
2016-Apr-22 23:33N 35°38' E 139°46'5 4.8
2016-Apr-22 22:33N 35°34' E 139°49'9 9.0
2016-Apr-22 21:33N 35°25' E 139°48'10 9.9
2016-Apr-22 20:33N 35°15' E 139°47'1110.8
2016-Apr-22 19:34N 35°05' E 139°43'  
2016-Apr-19 16:29N 34°06' E 134°46'248 9.2
2016-Apr-18 13:29N 35°06' E 139°38'1111.3
2016-Apr-18 12:34N 35°14' E 139°46'7 6.6
2016-Apr-18 11:30N 35°20' E 139°41'0 0.0
2016-Apr-18 10:27N 35°20' E 139°41'0 0.0
2016-Apr-18 09:30N 35°20' E 139°41'0 0.1
2016-Apr-18 08:27N 35°20' E 139°41'0 0.0
2016-Apr-18 07:33N 35°20' E 139°41'0 0.0
2016-Apr-18 06:33N 35°20' E 139°41'0 0.0
2016-Apr-18 05:33N 35°20' E 139°41'0 0.0
2016-Apr-18 04:33N 35°20' E 139°41'0 0.0
2016-Apr-18 03:30N 35°20' E 139°41'0 0.0
2016-Apr-18 02:33N 35°20' E 139°41'0 0.0
2016-Apr-18 01:24N 35°20' E 139°41'0 0.0
2016-Apr-18 00:33N 35°20' E 139°41'0 0.0
2016-Apr-17 23:30N 35°20' E 139°41'0 0.0
2016-Apr-17 22:32N 35°20' E 139°41'0 0.0
2016-Apr-17 21:32N 35°20' E 139°41'0 0.0
2016-Apr-17 20:33N 35°20' E 139°41'0 0.0
2016-Apr-17 19:32N 35°20' E 139°41'0 0.0
2016-Apr-17 18:32N 35°20' E 139°41'0 0.0
2016-Apr-17 17:31N 35°20' E 139°41'0 0.0
2016-Apr-17 16:33N 35°20' E 139°41'0 0.0
2016-Apr-17 15:30N 35°20' E 139°41'0 0.0
2016-Apr-17 14:33N 35°20' E 139°41'0 0.0
2016-Apr-17 13:33N 35°20' E 139°41'  
Track history (hours):
 
Tides and Currents Weather Stations Pressure Air Temp Water Temp Dewpoint Dewpoint Depression Visibility Wind Speed Wind Dir Waves Ship Positions

Ohshima Kazumaru

Last reported at 2016-Apr-27 13:17 UTC. Time now 2016-Apr-29 10:03 UTC.
Position N 35°02' E 139°31'.

Length 69 m; draft 4 m.

Type: Cargo ship. MMSI: 431000925.

Date/timePositionNaut miles runAvg speedWind from/ knotsBaromVisibWave heightAir tempDewpointWater temp
2016-Apr-27 13:17N 35°02' E 139°31'1012.0
2016-Apr-27 12:25N 35°07' E 139°42'1011.0
2016-Apr-27 11:33N 35°16' E 139°45'1010.3
2016-Apr-27 10:33N 35°26' E 139°45'5 5.0
2016-Apr-27 09:31N 35°32' E 139°47'0 0.0
2016-Apr-27 07:19N 35°32' E 139°47'0 0.0
2016-Apr-27 05:16N 35°32' E 139°47'0 0.0
2016-Apr-27 04:13N 35°32' E 139°47'0 0.0
2016-Apr-27 03:31N 35°32' E 139°47'0 0.0
2016-Apr-27 02:31N 35°32' E 139°47'0 0.0
2016-Apr-27 01:31N 35°32' E 139°47'0 0.0
2016-Apr-27 00:25N 35°32' E 139°47'0 0.0
2016-Apr-26 23:33N 35°32' E 139°47'0 0.0
2016-Apr-26 22:32N 35°32' E 139°47'2 2.3
2016-Apr-26 21:31N 35°31' E 139°50'0 0.1
2016-Apr-26 20:31N 35°31' E 139°50'5 5.6
2016-Apr-26 19:34N 35°26' E 139°47'1110.8
2016-Apr-26 18:33N 35°15' E 139°47'1110.8
2016-Apr-26 17:33N 35°05' E 139°42'1211.8
2016-Apr-26 16:32N 34°57' E 139°31'  
2016-Apr-24 12:30N 34°07' E 134°46'244 9.8
2016-Apr-23 11:33N 35°03' E 139°34'1211.3
2016-Apr-23 10:31N 35°11' E 139°45'1111.2
2016-Apr-23 09:33N 35°21' E 139°42'1111.1
2016-Apr-23 08:33N 35°31' E 139°49'8 8.4
2016-Apr-23 07:33N 35°38' E 139°46'0 0.0
2016-Apr-23 06:33N 35°38' E 139°46'0 0.0
2016-Apr-23 05:33N 35°38' E 139°46'0 0.0
2016-Apr-23 04:33N 35°38' E 139°46'0 0.0
2016-Apr-23 03:33N 35°38' E 139°46'0 0.0
2016-Apr-23 02:33N 35°38' E 139°46'0 0.0
2016-Apr-23 01:33N 35°38' E 139°46'0 0.0
2016-Apr-23 00:33N 35°38' E 139°46'0 0.0
2016-Apr-22 23:33N 35°38' E 139°46'5 4.8
2016-Apr-22 22:33N 35°34' E 139°49'9 9.0
2016-Apr-22 21:33N 35°25' E 139°48'10 9.9
2016-Apr-22 20:33N 35°15' E 139°47'1110.8
2016-Apr-22 19:34N 35°05' E 139°43'  
2016-Apr-19 16:29N 34°06' E 134°46'248 9.2
2016-Apr-18 13:29N 35°06' E 139°38'1111.3
2016-Apr-18 12:34N 35°14' E 139°46'7 6.6
2016-Apr-18 11:30N 35°20' E 139°41'0 0.0
2016-Apr-18 10:27N 35°20' E 139°41'0 0.0
2016-Apr-18 09:30N 35°20' E 139°41'0 0.1
2016-Apr-18 08:27N 35°20' E 139°41'0 0.0
2016-Apr-18 07:33N 35°20' E 139°41'0 0.0
2016-Apr-18 06:33N 35°20' E 139°41'0 0.0
2016-Apr-18 05:33N 35°20' E 139°41'0 0.0
2016-Apr-18 04:33N 35°20' E 139°41'0 0.0
2016-Apr-18 03:30N 35°20' E 139°41'0 0.0
2016-Apr-18 02:33N 35°20' E 139°41'0 0.0
2016-Apr-18 01:24N 35°20' E 139°41'0 0.0
2016-Apr-18 00:33N 35°20' E 139°41'0 0.0
2016-Apr-17 23:30N 35°20' E 139°41'0 0.0
2016-Apr-17 22:32N 35°20' E 139°41'0 0.0
2016-Apr-17 21:32N 35°20' E 139°41'0 0.0
2016-Apr-17 20:33N 35°20' E 139°41'0 0.0
2016-Apr-17 19:32N 35°20' E 139°41'0 0.0
2016-Apr-17 18:32N 35°20' E 139°41'0 0.0
2016-Apr-17 17:31N 35°20' E 139°41'0 0.0
2016-Apr-17 16:33N 35°20' E 139°41'0 0.0
2016-Apr-17 15:30N 35°20' E 139°41'0 0.0
2016-Apr-17 14:33N 35°20' E 139°41'0 0.0
2016-Apr-17 13:33N 35°20' E 139°41'  

Dump ship's entire track history